Time;durP1;ratioP1;P1;durP2;ratioP2;P2;SDS_P1;SDS_P2;PMS_P1;PMS_P2;Temp;Humidity;BMP_temperature;BMP_pressure;BME280_temperature;BME280_humidity;BME280_pressure;Samples;Min_cycle;Max_cycle;Signal;HPM_P1;HPM_P2
2022/12/20 00:00:05;;;;;;;;;;;;;;;12.89;68.40;100895.59;1266988;23;1951;-71
2022/12/20 00:00:56;;;;;;;;;;;;;;;12.89;68.10;100903.63;1265569;23;622;-70
2022/12/20 00:01:46;;;;;;;;;;;;;;;12.86;68.12;100897.53;1265780;23;642;-71
2022/12/20 00:02:37;;;;;;;;;;;;;;;12.85;68.33;100887.78;1265631;23;654;-71
2022/12/20 00:03:27;;;;;;;;;;;;;;;12.86;68.26;100885.97;1265716;23;634;-71
2022/12/20 00:04:17;;;;;;;;;;;;;;;12.85;67.97;100890.47;1265300;23;658;-70
2022/12/20 00:05:08;;;;;;;;;;;;;;;12.86;68.06;100884.16;1265540;23;646;-71
2022/12/20 00:05:58;;;;;;;;;;;;;;;12.85;67.94;100887.78;1267177;23;700;-70
2022/12/20 00:06:49;;;;;;;;;;;;;;;12.88;68.58;100891.22;1265560;23;575;-70
2022/12/20 00:07:39;;;;;;;;;;;;;;;12.87;68.41;100887.69;1265774;23;638;-70
2022/12/20 00:08:30;;;;;;;;;;;;;;;12.85;68.16;100898.50;1265399;23;607;-70
2022/12/20 00:09:20;;;;;;;;;;;;;;;12.88;67.93;100888.53;1265735;23;630;-70
2022/12/20 00:10:11;;;;;;;;;;;;;;;12.86;68.49;100886.81;1265389;23;643;-70
2022/12/20 00:11:01;;;;;;;;;;;;;;;12.87;68.01;100885.00;1265604;23;654;-70
2022/12/20 00:11:52;;;;;;;;;;;;;;;12.86;68.83;100885.97;1265351;23;667;-70
2022/12/20 00:12:42;;;;;;;;;;;;;;;12.86;68.92;100889.50;1265399;23;630;-70
2022/12/20 00:13:32;;;;;;;;;;;;;;;12.86;68.01;100884.16;1265375;23;713;-70
2022/12/20 00:14:23;;;;;;;;;;;;;;;12.88;68.42;100888.53;1265460;23;670;-70
2022/12/20 00:15:13;;;;;;;;;;;;;;;12.88;68.05;100893.88;1265741;23;627;-70
2022/12/20 00:16:04;;;;;;;;;;;;;;;12.88;68.78;100893.88;1265491;23;630;-70
2022/12/20 00:16:54;;;;;;;;;;;;;;;12.88;68.02;100892.06;1267379;23;650;-70
2022/12/20 00:17:45;;;;;;;;;;;;;;;12.85;68.78;100893.13;1265602;23;606;-70
2022/12/20 00:18:35;;;;;;;;;;;;;;;12.87;68.21;100890.34;1265704;23;697;-70
2022/12/20 00:19:26;;;;;;;;;;;;;;;12.88;68.24;100892.06;1265465;23;647;-70
2022/12/20 00:20:16;;;;;;;;;;;;;;;12.88;68.76;100896.56;1265478;23;1896;-71
2022/12/20 00:21:07;;;;;;;;;;;;;;;12.87;68.31;100895.72;1266247;23;610;-70
2022/12/20 00:21:57;;;;;;;;;;;;;;;12.88;68.41;100897.41;1265560;23;673;-71
2022/12/20 00:22:47;;;;;;;;;;;;;;;12.88;68.14;100897.41;1265798;23;661;-70
2022/12/20 00:23:38;;;;;;;;;;;;;;;12.88;67.90;100891.22;1265449;23;733;-71
2022/12/20 00:24:28;;;;;;;;;;;;;;;12.87;68.08;100895.72;1265640;23;642;-71
2022/12/20 00:25:19;;;;;;;;;;;;;;;12.85;68.14;100890.47;1265369;23;613;-70
2022/12/20 00:26:10;;;;;;;;;;;;;;;12.84;68.09;100886.09;1267219;23;611;-70
2022/12/20 00:27:00;;;;;;;;;;;;;;;12.85;68.43;100890.47;1265553;23;666;-70
2022/12/20 00:27:50;;;;;;;;;;;;;;;12.84;68.13;100878.06;1265783;23;637;-71
2022/12/20 00:28:41;;;;;;;;;;;;;;;12.88;68.74;100886.72;1265423;23;678;-71
2022/12/20 00:29:31;;;;;;;;;;;;;;;12.90;68.48;100889.28;1265816;23;658;-71
2022/12/20 00:30:22;;;;;;;;;;;;;;;12.91;67.93;100882.94;1265403;23;642;-71
2022/12/20 00:31:12;;;;;;;;;;;;;;;12.89;68.40;100887.56;1265562;23;654;-70
2022/12/20 00:32:02;;;;;;;;;;;;;;;12.89;67.79;100879.53;1265850;23;634;-70
2022/12/20 00:32:53;;;;;;;;;;;;;;;12.88;68.73;100875.16;1265525;23;623;-71
2022/12/20 00:33:43;;;;;;;;;;;;;;;12.86;68.26;100880.63;1265800;23;666;-71
2022/12/20 00:34:34;;;;;;;;;;;;;;;12.86;67.98;100880.63;1264870;23;631;-70
2022/12/20 00:35:24;;;;;;;;;;;;;;;12.86;68.20;100884.16;1265661;23;591;-70
2022/12/20 00:36:15;;;;;;;;;;;;;;;12.84;68.34;100870.03;1265335;23;844;-70
2022/12/20 00:37:05;;;;;;;;;;;;;;;12.84;68.20;100882.56;1265617;23;638;-70
2022/12/20 00:37:55;;;;;;;;;;;;;;;12.84;68.11;100880.72;1265745;23;618;-70
2022/12/20 00:38:46;;;;;;;;;;;;;;;12.84;67.99;100870.03;1265606;23;674;-70
2022/12/20 00:39:36;;;;;;;;;;;;;;;12.85;68.06;100874.41;1265632;23;691;-70
2022/12/20 00:40:27;;;;;;;;;;;;;;;12.86;68.12;100868.09;1265369;23;1929;-70
2022/12/20 00:41:17;;;;;;;;;;;;;;;12.84;68.72;100869.19;1265621;23;653;-71
2022/12/20 00:42:07;;;;;;;;;;;;;;;12.85;68.65;100869.06;1265348;23;638;-70
2022/12/20 00:42:58;;;;;;;;;;;;;;;12.88;68.50;100867.13;1265447;23;1014;-70
2022/12/20 00:43:48;;;;;;;;;;;;;;;12.90;68.78;100867.88;1265845;23;658;-70
2022/12/20 00:44:39;;;;;;;;;;;;;;;12.88;67.90;100867.13;1265555;23;614;-71
2022/12/20 00:45:30;;;;;;;;;;;;;;;12.88;68.61;100872.50;1265375;23;708;-70
2022/12/20 00:46:22;;;;;;;;;;;;;;;12.90;67.98;100870.56;1265742;23;654;-71
2022/12/20 00:47:12;;;;;;;;;;;;;;;12.90;68.35;100873.22;1265659;23;645;-70
2022/12/20 00:48:03;;;;;;;;;;;;;;;12.89;68.94;100877.72;1265293;23;670;-70
2022/12/20 00:48:53;;;;;;;;;;;;;;;12.87;67.97;100871.63;1266646;23;701;-70
2022/12/20 00:49:44;;;;;;;;;;;;;;;12.88;68.63;100869.81;1265270;23;709;-71
2022/12/20 00:50:34;;;;;;;;;;;;;;;12.89;68.75;100871.53;1265631;23;634;-70
2022/12/20 00:51:24;;;;;;;;;;;;;;;12.88;68.24;100868.00;1265720;23;650;-70
2022/12/20 00:52:15;;;;;;;;;;;;;;;12.89;68.09;100871.53;1265473;23;634;-70
2022/12/20 00:53:08;;;;;;;;;;;;;;;12.84;68.63;100872.72;1265640;23;725;-70
2022/12/20 00:53:59;;;;;;;;;;;;;;;12.86;68.18;100883.28;1267145;23;637;-70
2022/12/20 00:54:49;;;;;;;;;;;;;;;12.86;68.51;100889.50;1259217;23;661;-70
2022/12/20 00:55:40;;;;;;;;;;;;;;;12.86;68.30;100881.47;1260700;23;630;-69
2022/12/20 00:56:30;;;;;;;;;;;;;;;12.87;68.61;100885.00;1267122;23;618;-69
2022/12/20 00:57:20;;;;;;;;;;;;;;;12.84;68.29;100879.88;1265755;23;693;-69
2022/12/20 00:58:11;;;;;;;;;;;;;;;12.84;68.13;100875.38;1265459;23;704;-70
2022/12/20 00:59:01;;;;;;;;;;;;;;;12.85;68.21;100882.44;1265665;23;693;-69
2022/12/20 00:59:52;;;;;;;;;;;;;;;12.88;68.75;100875.16;1265359;23;650;-70
2022/12/20 01:00:42;;;;;;;;;;;;;;;12.86;68.75;100878.81;1265521;23;671;-70
2022/12/20 01:01:35;;;;;;;;;;;;;;;12.87;68.92;100868.97;1265427;23;684;-69
2022/12/20 01:02:26;;;;;;;;;;;;;;;12.86;68.79;100868.09;1265505;23;618;-68
2022/12/20 01:03:16;;;;;;;;;;;;;;;12.85;68.29;100868.22;1265082;23;637;-70
2022/12/20 01:04:07;;;;;;;;;;;;;;;12.85;69.04;100854.84;1265340;23;720;-69
2022/12/20 01:04:57;;;;;;;;;;;;;;;12.86;68.39;100860.09;1265685;23;838;-70
2022/12/20 01:05:48;;;;;;;;;;;;;;;12.85;69.09;100855.69;1265253;23;665;-70
2022/12/20 01:06:38;;;;;;;;;;;;;;;12.88;68.90;100859.13;1259213;23;662;-69
2022/12/20 01:07:28;;;;;;;;;;;;;;;12.86;68.96;100856.56;1259349;23;642;-70
2022/12/20 01:08:19;;;;;;;;;;;;;;;12.85;69.13;100860.19;1267100;23;653;-70
2022/12/20 01:09:09;;;;;;;;;;;;;;;12.86;68.79;100865.44;1265257;23;692;-70
2022/12/20 01:10:00;;;;;;;;;;;;;;;12.87;67.98;100858.25;1265448;23;630;-70
2022/12/20 01:10:50;;;;;;;;;;;;;;;12.88;68.64;100870.66;1265575;23;689;-70
2022/12/20 01:11:41;;;;;;;;;;;;;;;12.84;68.98;100862.00;1265417;23;654;-70
2022/12/20 01:12:31;;;;;;;;;;;;;;;12.84;68.33;100848.63;1265736;23;654;-70
2022/12/20 01:13:22;;;;;;;;;;;;;;;12.85;68.55;100855.69;1265422;23;618;-70
2022/12/20 01:14:12;;;;;;;;;;;;;;;12.85;68.04;100858.38;1265441;23;622;-69
2022/12/20 01:15:02;;;;;;;;;;;;;;;12.84;68.58;100848.63;1265640;23;693;-69
2022/12/20 01:15:53;;;;;;;;;;;;;;;12.84;68.84;100851.31;1265414;23;622;-69
2022/12/20 01:16:43;;;;;;;;;;;;;;;12.84;68.89;100848.63;1265515;23;693;-70
2022/12/20 01:17:34;;;;;;;;;;;;;;;12.84;68.86;100845.97;1265472;23;685;-70
2022/12/20 01:18:24;;;;;;;;;;;;;;;12.85;69.13;100858.38;1265448;23;658;-70
2022/12/20 01:19:15;;;;;;;;;;;;;;;12.88;68.01;100851.09;1266165;23;675;-69
2022/12/20 01:20:05;;;;;;;;;;;;;;;12.88;68.68;100845.75;1265368;23;1889;-69
2022/12/20 01:20:55;;;;;;;;;;;;;;;12.89;68.26;100844.78;1265682;23;638;-70
2022/12/20 01:21:46;;;;;;;;;;;;;;;12.88;68.52;100845.75;1265374;23;610;-70
2022/12/20 01:22:36;;;;;;;;;;;;;;;12.88;68.73;100853.75;1265661;23;690;-69
2022/12/20 01:23:27;;;;;;;;;;;;;;;12.88;68.79;100848.41;1265501;23;646;-69
2022/12/20 01:24:17;;;;;;;;;;;;;;;12.89;68.24;100842.09;1259509;23;1073;-70
2022/12/20 01:25:08;;;;;;;;;;;;;;;12.88;68.71;100849.28;1260207;23;669;-69
2022/12/20 01:25:58;;;;;;;;;;;;;;;12.89;68.38;100850.13;1267307;23;630;-69
2022/12/20 01:26:48;;;;;;;;;;;;;;;12.89;68.90;100861.69;1266150;23;665;-70
2022/12/20 01:27:39;;;;;;;;;;;;;;;12.88;69.04;100859.13;1265858;23;661;-69
2022/12/20 01:28:29;;;;;;;;;;;;;;;12.88;68.10;100853.75;1266130;23;653;-70
2022/12/20 01:29:20;;;;;;;;;;;;;;;12.87;68.28;100858.25;1265799;23;702;-70
2022/12/20 01:30:10;;;;;;;;;;;;;;;12.89;68.41;100850.13;1267508;23;676;-69
2022/12/20 01:31:01;;;;;;;;;;;;;;;12.88;68.11;100846.59;1265812;23;614;-69
2022/12/20 01:31:52;;;;;;;;;;;;;;;12.88;68.40;100849.28;1265047;23;764;-69
2022/12/20 01:32:43;;;;;;;;;;;;;;;12.89;68.07;100844.78;1267528;23;649;-69
2022/12/20 01:33:33;;;;;;;;;;;;;;;12.89;68.47;100844.78;1267525;23;638;-69
2022/12/20 01:34:24;;;;;;;;;;;;;;;12.89;69.02;100850.13;1265896;23;646;-69
2022/12/20 01:35:14;;;;;;;;;;;;;;;12.89;68.74;100844.78;1266020;23;668;-69
2022/12/20 01:36:05;;;;;;;;;;;;;;;12.88;68.96;100851.09;1265789;23;674;-69
2022/12/20 01:36:55;;;;;;;;;;;;;;;12.87;68.26;100847.56;1265896;23;658;-69
2022/12/20 01:37:46;;;;;;;;;;;;;;;12.89;68.44;100844.78;1265649;23;705;-69
2022/12/20 01:38:36;;;;;;;;;;;;;;;12.89;68.54;100856.34;1265844;23;670;-69
2022/12/20 01:39:26;;;;;;;;;;;;;;;12.90;68.71;100847.31;1266067;23;705;-69
2022/12/20 01:40:17;;;;;;;;;;;;;;;12.90;68.08;100841.13;1265711;23;1889;-69
2022/12/20 01:41:07;;;;;;;;;;;;;;;12.90;68.51;100841.13;1265965;23;631;-69
2022/12/20 01:41:58;;;;;;;;;;;;;;;12.90;68.77;100841.97;1259178;23;630;-69
2022/12/20 01:42:48;;;;;;;;;;;;;;;12.91;67.96;100826.75;1259388;23;650;-69
2022/12/20 01:43:39;;;;;;;;;;;;;;;12.89;68.33;100826.91;1267468;23;610;-69
2022/12/20 01:44:29;;;;;;;;;;;;;;;12.89;68.88;100829.59;1265996;23;602;-69
2022/12/20 01:45:20;;;;;;;;;;;;;;;12.89;68.09;100820.72;1265576;23;662;-69
2022/12/20 01:46:10;;;;;;;;;;;;;;;12.89;68.45;100831.41;1259377;23;650;-69
2022/12/20 01:47:00;;;;;;;;;;;;;;;12.88;68.22;100837.72;1260421;23;661;-69
2022/12/20 01:47:51;;;;;;;;;;;;;;;12.90;68.38;100841.97;1267234;23;634;-69
2022/12/20 01:48:41;;;;;;;;;;;;;;;12.88;68.97;100835.91;1259551;23;661;-71
2022/12/20 01:49:32;;;;;;;;;;;;;;;12.88;68.54;100837.72;1261122;23;797;-70
2022/12/20 01:50:22;;;;;;;;;;;;;;;12.89;68.32;100847.44;1259295;23;654;-69
2022/12/20 01:51:13;;;;;;;;;;;;;;;12.90;68.35;100833.94;1261082;23;622;-70
2022/12/20 01:52:03;;;;;;;;;;;;;;;12.90;68.04;100833.94;1266034;23;681;-69
2022/12/20 01:52:54;;;;;;;;;;;;;;;12.90;68.15;100825.91;1265719;23;642;-70
2022/12/20 01:53:44;;;;;;;;;;;;;;;12.89;68.78;100826.91;1265748;23;1309;-69
2022/12/20 01:54:35;;;;;;;;;;;;;;;12.90;68.40;100823.22;1265767;23;658;-69
2022/12/20 01:55:25;;;;;;;;;;;;;;;12.90;69.17;100814.38;1265808;23;635;-69
2022/12/20 01:56:16;;;;;;;;;;;;;;;12.90;68.24;100825.09;1265967;23;622;-69
2022/12/20 01:57:06;;;;;;;;;;;;;;;12.89;68.53;100821.56;1265908;23;662;-70
2022/12/20 01:57:57;;;;;;;;;;;;;;;12.89;68.06;100828.72;1265956;23;681;-69
2022/12/20 01:58:47;;;;;;;;;;;;;;;12.86;68.92;100830.66;1265791;23;721;-69
2022/12/20 01:59:38;;;;;;;;;;;;;;;12.85;68.86;100826.28;1265594;23;666;-70
2022/12/20 02:00:28;;;;;;;;;;;;;;;12.87;68.61;100831.50;1265647;23;1949;-70
2022/12/20 02:01:18;;;;;;;;;;;;;;;12.87;68.23;100823.50;1265501;23;669;-70
2022/12/20 02:02:09;;;;;;;;;;;;;;;12.87;68.77;100820.81;1259331;23;638;-69
2022/12/20 02:02:59;;;;;;;;;;;;;;;12.89;68.04;100828.72;1261084;23;681;-69
2022/12/20 02:03:50;;;;;;;;;;;;;;;12.88;68.26;100817.19;1267286;23;626;-70
2022/12/20 02:04:40;;;;;;;;;;;;;;;12.87;68.71;100820.81;1265825;23;626;-70
2022/12/20 02:05:31;;;;;;;;;;;;;;;12.87;68.99;100812.78;1266107;23;658;-70
2022/12/20 02:06:21;;;;;;;;;;;;;;;12.86;68.58;100819.97;1265805;23;626;-70
2022/12/20 02:07:12;;;;;;;;;;;;;;;12.87;68.23;100815.47;1265899;23;650;-70
2022/12/20 02:08:03;;;;;;;;;;;;;;;12.88;68.49;100808.31;1267489;23;638;-70
2022/12/20 02:08:53;;;;;;;;;;;;;;;12.88;68.95;100819.00;1265740;23;616;-70
2022/12/20 02:09:44;;;;;;;;;;;;;;;12.87;68.86;100826.16;1265983;23;645;-70
2022/12/20 02:10:34;;;;;;;;;;;;;;;12.88;69.17;100819.00;1265759;23;618;-70
2022/12/20 02:11:24;;;;;;;;;;;;;;;12.88;69.15;100810.97;1259638;23;674;-70
2022/12/20 02:12:15;;;;;;;;;;;;;;;12.89;69.18;100816.22;1261109;23;661;-70
2022/12/20 02:13:05;;;;;;;;;;;;;;;12.88;68.49;100811.84;1267308;23;630;-69
2022/12/20 02:13:56;;;;;;;;;;;;;;;12.88;68.88;100813.66;1265686;23;673;-69
2022/12/20 02:14:48;;;;;;;;;;;;;;;12.90;69.07;100801.03;1265920;23;642;-70
2022/12/20 02:15:38;;;;;;;;;;;;;;;12.90;68.55;100798.34;1267516;23;598;-70
2022/12/20 02:16:29;;;;;;;;;;;;;;;12.92;69.29;100807.06;1265655;23;618;-69
2022/12/20 02:17:19;;;;;;;;;;;;;;;12.92;68.26;100797.22;1265679;23;615;-70
2022/12/20 02:18:09;;;;;;;;;;;;;;;12.90;68.57;100804.50;1265802;23;685;-70
2022/12/20 02:19:00;;;;;;;;;;;;;;;12.89;68.66;100794.81;1265506;23;669;-70
2022/12/20 02:19:50;;;;;;;;;;;;;;;12.93;68.75;100784.72;1265982;23;630;-71
2022/12/20 02:20:41;;;;;;;;;;;;;;;12.91;69.42;100779.47;1265706;23;638;-70
2022/12/20 02:21:31;;;;;;;;;;;;;;;12.91;68.74;100790.19;1265803;23;789;-70
2022/12/20 02:22:22;;;;;;;;;;;;;;;12.91;68.39;100779.47;1259456;23;646;-70
2022/12/20 02:23:12;;;;;;;;;;;;;;;12.92;68.33;100788.34;1259369;23;627;-70
2022/12/20 02:24:03;;;;;;;;;;;;;;;12.92;68.98;100791.88;1267076;23;645;-71
2022/12/20 02:24:53;;;;;;;;;;;;;;;12.92;69.27;100791.88;1267410;23;770;-70
2022/12/20 02:25:44;;;;;;;;;;;;;;;12.92;69.38;100791.88;1267395;23;860;-70
2022/12/20 02:26:35;;;;;;;;;;;;;;;12.92;69.27;100796.38;1267447;23;594;-70
2022/12/20 02:27:25;;;;;;;;;;;;;;;12.94;69.07;100786.41;1265752;23;623;-70
2022/12/20 02:28:16;;;;;;;;;;;;;;;12.91;69.25;100795.53;1266077;23;630;-70
2022/12/20 02:29:06;;;;;;;;;;;;;;;12.92;68.90;100791.88;1265637;23;622;-70
2022/12/20 02:29:56;;;;;;;;;;;;;;;12.91;68.87;100778.63;1266060;23;690;-70
2022/12/20 02:30:47;;;;;;;;;;;;;;;12.92;69.19;100791.88;1265648;23;647;-70
2022/12/20 02:31:37;;;;;;;;;;;;;;;12.92;68.82;100799.06;1265975;23;696;-70
2022/12/20 02:32:28;;;;;;;;;;;;;;;12.91;68.68;100792.84;1265707;23;666;-69
2022/12/20 02:33:18;;;;;;;;;;;;;;;12.94;68.46;100778.41;1265775;23;827;-70
2022/12/20 02:34:09;;;;;;;;;;;;;;;12.99;67.68;100786.94;1265929;23;657;-69
2022/12/20 02:34:59;;;;;;;;;;;;;;;12.99;67.68;100779.75;1265467;23;681;-70
2022/12/20 02:35:49;;;;;;;;;;;;;;;13.01;68.35;100782.31;1265707;23;682;-69
2022/12/20 02:36:40;;;;;;;;;;;;;;;13.00;68.34;100792.16;1265600;23;689;-69
2022/12/20 02:37:30;;;;;;;;;;;;;;;13.01;68.47;100795.69;1265733;23;658;-69
2022/12/20 02:38:21;;;;;;;;;;;;;;;12.99;68.28;100790.47;1259082;23;689;-69
2022/12/20 02:39:11;;;;;;;;;;;;;;;13.00;67.98;100804.69;1260931;23;669;-70
2022/12/20 02:40:02;;;;;;;;;;;;;;;12.99;67.91;100797.63;1267311;23;670;-70
2022/12/20 02:40:52;;;;;;;;;;;;;;;12.98;68.65;100787.91;1265624;23;663;-70
2022/12/20 02:41:43;;;;;;;;;;;;;;;12.96;68.07;100796.03;1267513;23;562;-70
2022/12/20 02:42:33;;;;;;;;;;;;;;;12.96;68.11;100784.47;1265572;23;666;-70
2022/12/20 02:45:42;;;;;;;;;;;;;;;12.96;68.04;100776.47;1264559;23;639;-69
2022/12/20 02:46:32;;;;;;;;;;;;;;;12.98;68.30;100785.22;1265441;23;610;-69
2022/12/20 02:47:22;;;;;;;;;;;;;;;12.97;68.24;100783.53;1265779;23;705;-69
2022/12/20 02:48:13;;;;;;;;;;;;;;;12.95;67.97;100772.94;1266440;23;665;-69
2022/12/20 02:49:03;;;;;;;;;;;;;;;12.95;68.46;100780.97;1265737;23;666;-69
2022/12/20 02:49:54;;;;;;;;;;;;;;;12.96;68.21;100782.66;1265895;23;590;-69
2022/12/20 02:50:44;;;;;;;;;;;;;;;12.95;68.51;100778.28;1265662;23;953;-69
2022/12/20 02:51:35;;;;;;;;;;;;;;;12.96;68.19;100805.88;1265742;23;845;-69
2022/12/20 02:52:25;;;;;;;;;;;;;;;12.95;69.00;100801.50;1265577;23;649;-69
2022/12/20 02:53:16;;;;;;;;;;;;;;;12.95;68.28;100796.16;1265983;23;669;-69
2022/12/20 02:54:06;;;;;;;;;;;;;;;12.95;68.94;100799.69;1265428;23;633;-69
2022/12/20 02:54:56;;;;;;;;;;;;;;;12.94;68.59;100794.44;1265754;23;692;-70
2022/12/20 02:55:47;;;;;;;;;;;;;;;12.97;68.45;100799.56;1265411;23;665;-69
2022/12/20 02:56:37;;;;;;;;;;;;;;;12.96;68.47;100800.53;1265799;23;658;-69
2022/12/20 02:57:28;;;;;;;;;;;;;;;12.95;68.46;100786.31;1265879;23;606;-69
2022/12/20 02:58:18;;;;;;;;;;;;;;;12.96;68.67;100787.16;1265593;23;657;-69
2022/12/20 02:59:08;;;;;;;;;;;;;;;12.96;68.99;100796.03;1259166;23;720;-69
2022/12/20 03:00:00;;;;;;;;;;;;;;;12.98;68.50;100787.91;1260896;23;645;-70
2022/12/20 03:00:50;;;;;;;;;;;;;;;12.98;69.19;100787.91;1267427;23;630;-69
2022/12/20 03:01:41;;;;;;;;;;;;;;;12.96;68.63;100776.47;1265948;23;703;-70
2022/12/20 03:03:40;;;;;;;;;;;;;;;12.97;68.54;100787.06;1264176;23;657;-69
2022/12/20 03:04:31;;;;;;;;;;;;;;;13.00;69.10;100788.63;1265823;23;638;-69
2022/12/20 03:05:21;;;;;;;;;;;;;;;12.97;68.33;100773.66;1265472;23;733;-69
2022/12/20 03:06:11;;;;;;;;;;;;;;;12.95;68.53;100774.75;1265774;23;689;-69
2022/12/20 03:07:02;;;;;;;;;;;;;;;12.95;69.27;100780.09;1265633;23;918;-69
2022/12/20 03:07:52;;;;;;;;;;;;;;;12.98;68.96;100777.19;1265723;23;662;-69
2022/12/20 03:08:43;;;;;;;;;;;;;;;12.97;68.39;100772.81;1265310;23;586;-70
2022/12/20 03:09:33;;;;;;;;;;;;;;;12.96;69.13;100787.16;1265600;23;638;-69
2022/12/20 03:10:24;;;;;;;;;;;;;;;12.97;68.76;100783.53;1265796;23;694;-69
2022/12/20 03:11:14;;;;;;;;;;;;;;;12.98;68.65;100777.19;1265634;23;654;-69
2022/12/20 03:12:04;;;;;;;;;;;;;;;12.96;68.54;100781.81;1265626;23;686;-69
2022/12/20 03:12:55;;;;;;;;;;;;;;;12.96;68.46;100780.00;1265463;23;626;-69
2022/12/20 03:13:45;;;;;;;;;;;;;;;12.96;68.68;100792.50;1265050;23;634;-69
2022/12/20 03:14:36;;;;;;;;;;;;;;;12.97;68.67;100791.53;1265788;23;658;-69
2022/12/20 03:15:26;;;;;;;;;;;;;;;12.96;68.47;100779.13;1265425;23;681;-69
2022/12/20 03:16:16;;;;;;;;;;;;;;;12.94;69.09;100779.25;1265895;23;657;-69
2022/12/20 03:17:07;;;;;;;;;;;;;;;12.96;68.22;100785.34;1265377;23;681;-69
2022/12/20 03:17:57;;;;;;;;;;;;;;;12.96;68.67;100774.63;1265676;23;626;-69
2022/12/20 03:18:48;;;;;;;;;;;;;;;12.96;68.99;100760.41;1265383;23;563;-69
2022/12/20 03:19:38;;;;;;;;;;;;;;;12.96;68.53;100768.44;1265641;23;754;-69
2022/12/20 03:20:29;;;;;;;;;;;;;;;12.96;68.82;100776.47;1265803;23;1928;-69
2022/12/20 03:21:19;;;;;;;;;;;;;;;12.95;68.97;100780.09;1265531;23;653;-69
2022/12/20 03:22:09;;;;;;;;;;;;;;;12.95;68.45;100778.28;1265654;23;661;-69
2022/12/20 03:23:00;;;;;;;;;;;;;;;12.96;68.36;100782.66;1265346;23;759;-69
2022/12/20 03:23:50;;;;;;;;;;;;;;;12.97;69.11;100772.81;1265589;23;646;-69
2022/12/20 03:24:41;;;;;;;;;;;;;;;12.96;68.99;100776.47;1265890;23;795;-69
2022/12/20 03:25:31;;;;;;;;;;;;;;;12.96;69.00;100788.00;1265568;23;797;-69
2022/12/20 03:26:22;;;;;;;;;;;;;;;12.96;68.98;100795.19;1265694;23;685;-69
2022/12/20 03:27:12;;;;;;;;;;;;;;;12.97;68.20;100783.53;1265407;23;658;-69
2022/12/20 03:28:02;;;;;;;;;;;;;;;12.97;68.38;100788.88;1265538;23;689;-69
2022/12/20 03:28:53;;;;;;;;;;;;;;;12.96;69.16;100780.00;1265390;23;622;-69
2022/12/20 03:29:44;;;;;;;;;;;;;;;12.96;68.79;100779.13;1265670;23;627;-69
2022/12/20 03:30:35;;;;;;;;;;;;;;;12.95;68.91;100783.63;1267328;23;658;-68
2022/12/20 03:31:25;;;;;;;;;;;;;;;12.95;69.22;100777.44;1265632;23;619;-69
2022/12/20 03:32:16;;;;;;;;;;;;;;;12.96;68.74;100781.81;1265670;23;510;-69
2022/12/20 03:33:06;;;;;;;;;;;;;;;12.94;68.34;100773.91;1265469;23;623;-69
2022/12/20 03:33:56;;;;;;;;;;;;;;;12.95;68.38;100774.75;1265687;23;717;-69
2022/12/20 03:34:47;;;;;;;;;;;;;;;12.97;68.72;100780.84;1259110;23;666;-69
2022/12/20 03:35:37;;;;;;;;;;;;;;;12.96;68.78;100771.97;1259328;23;650;-69
2022/12/20 03:36:28;;;;;;;;;;;;;;;12.95;68.99;100774.75;1267066;23;665;-69
2022/12/20 03:37:18;;;;;;;;;;;;;;;12.95;68.92;100772.06;1265512;23;661;-69
2022/12/20 03:38:09;;;;;;;;;;;;;;;12.95;68.20;100782.78;1265753;23;685;-69
2022/12/20 03:38:59;;;;;;;;;;;;;;;12.96;68.57;100773.78;1265437;23;638;-69
2022/12/20 03:39:49;;;;;;;;;;;;;;;12.95;69.05;100772.06;1265589;23;654;-69
2022/12/20 03:40:40;;;;;;;;;;;;;;;12.94;69.00;100763.19;1265774;23;612;-69
2022/12/20 03:41:30;;;;;;;;;;;;;;;12.94;68.95;100763.19;1265574;23;737;-69
2022/12/20 03:42:21;;;;;;;;;;;;;;;12.95;68.21;100769.41;1265817;23;646;-69
2022/12/20 03:43:11;;;;;;;;;;;;;;;12.94;68.57;100767.69;1265571;23;659;-69
2022/12/20 03:44:01;;;;;;;;;;;;;;;12.94;68.78;100763.19;1265572;23;654;-71
2022/12/20 03:44:52;;;;;;;;;;;;;;;12.95;68.26;100772.94;1265418;23;622;-71
2022/12/20 03:45:42;;;;;;;;;;;;;;;12.94;68.77;100765.88;1265464;23;642;-71
2022/12/20 03:46:33;;;;;;;;;;;;;;;12.95;68.83;100770.25;1265866;23;713;-71
2022/12/20 03:47:23;;;;;;;;;;;;;;;12.96;68.40;100771.13;1265299;23;642;-71
2022/12/20 03:48:14;;;;;;;;;;;;;;;12.96;69.04;100761.25;1265487;23;646;-70
2022/12/20 03:49:04;;;;;;;;;;;;;;;12.96;68.33;100755.91;1267089;23;716;-70
2022/12/20 03:49:55;;;;;;;;;;;;;;;12.97;68.52;100754.09;1265346;23;728;-70
2022/12/20 03:50:45;;;;;;;;;;;;;;;12.98;68.55;100753.13;1265546;23;650;-69
2022/12/20 03:51:36;;;;;;;;;;;;;;;12.98;69.12;100759.34;1265863;23;700;-70
2022/12/20 03:52:26;;;;;;;;;;;;;;;12.96;68.77;100753.25;1265559;23;662;-70
2022/12/20 03:53:16;;;;;;;;;;;;;;;12.95;68.40;100753.34;1264714;23;1159;-70
2022/12/20 03:54:07;;;;;;;;;;;;;;;12.94;68.72;100752.50;1265289;23;650;-70
2022/12/20 03:54:57;;;;;;;;;;;;;;;12.96;69.06;100753.25;1265618;23;626;-70
2022/12/20 03:55:48;;;;;;;;;;;;;;;12.96;68.96;100758.59;1265779;23;521;-70
2022/12/20 03:56:38;;;;;;;;;;;;;;;12.98;68.60;100758.47;1265522;23;681;-70
2022/12/20 03:57:29;;;;;;;;;;;;;;;12.99;69.22;100757.50;1265070;23;630;-70
2022/12/20 03:58:19;;;;;;;;;;;;;;;12.98;69.16;100755.81;1267214;23;752;-70
2022/12/20 03:59:10;;;;;;;;;;;;;;;12.97;68.54;100759.44;1265664;23;674;-70
2022/12/20 04:00:00;;;;;;;;;;;;;;;12.96;69.25;100755.91;1265531;23;681;-70
2022/12/20 04:00:50;;;;;;;;;;;;;;;12.97;69.04;100759.44;1265697;23;697;-70
2022/12/20 04:01:41;;;;;;;;;;;;;;;12.99;69.15;100749.47;1266399;23;697;-70
2022/12/20 04:02:31;;;;;;;;;;;;;;;12.97;68.89;100754.09;1265596;23;650;-69
2022/12/20 04:03:22;;;;;;;;;;;;;;;12.96;68.59;100761.25;1265863;23;693;-69
2022/12/20 04:04:12;;;;;;;;;;;;;;;12.97;68.40;100759.44;1265570;23;642;-69
2022/12/20 04:05:03;;;;;;;;;;;;;;;12.97;68.77;100759.44;1265655;23;706;-69
2022/12/20 04:05:53;;;;;;;;;;;;;;;12.96;69.30;100761.25;1265366;23;658;-70
2022/12/20 04:06:43;;;;;;;;;;;;;;;12.98;69.14;100758.47;1265541;23;626;-70
2022/12/20 04:07:34;;;;;;;;;;;;;;;12.98;69.20;100747.78;1265393;23;736;-69
2022/12/20 04:08:24;;;;;;;;;;;;;;;12.98;69.28;100761.16;1265645;23;581;-70
2022/12/20 04:09:15;;;;;;;;;;;;;;;12.96;69.09;100755.91;1265730;23;598;-69
2022/12/20 04:10:05;;;;;;;;;;;;;;;12.97;69.17;100762.13;1265462;23;733;-69
2022/12/20 04:11:38;;;;;;;;;;;;;;;12.97;69.14;100756.78;1265558;23;642;-69
2022/12/20 04:12:09;;;;;;;;;;;;;;;12.96;69.09;100755.91;1265858;23;595;-69
2022/12/20 04:13:00;;;;;;;;;;;;;;;12.95;68.94;100750.69;1265712;23;686;-70
2022/12/20 04:13:50;;;;;;;;;;;;;;;12.95;69.10;100740.84;1265440;23;626;-70
2022/12/20 04:14:40;;;;;;;;;;;;;;;12.96;68.91;100739.00;1265717;23;662;-69
2022/12/20 04:15:31;;;;;;;;;;;;;;;12.95;68.63;100746.19;1266316;23;983;-69
2022/12/20 04:16:21;;;;;;;;;;;;;;;12.95;68.37;100738.16;1265612;23;658;-69
2022/12/20 04:17:12;;;;;;;;;;;;;;;12.96;68.46;100745.22;1265700;23;638;-71
2022/12/20 04:18:02;;;;;;;;;;;;;;;12.97;68.55;100746.06;1265421;23;674;-71
2022/12/20 04:18:53;;;;;;;;;;;;;;;12.97;69.37;100752.28;1265572;23;662;-70
2022/12/20 04:19:43;;;;;;;;;;;;;;;12.98;68.74;100747.78;1265369;23;650;-70
2022/12/20 04:20:34;;;;;;;;;;;;;;;12.97;69.25;100736.22;1265518;23;1881;-70
2022/12/20 04:21:24;;;;;;;;;;;;;;;12.96;68.84;100744.38;1265348;23;671;-69
2022/12/20 04:22:14;;;;;;;;;;;;;;;12.97;68.47;100746.91;1265459;23;615;-69
2022/12/20 04:23:05;;;;;;;;;;;;;;;12.98;68.54;100753.13;1265647;23;673;-69
2022/12/20 04:23:55;;;;;;;;;;;;;;;12.97;68.85;100738.03;1265500;23;634;-69
2022/12/20 04:24:46;;;;;;;;;;;;;;;12.98;69.29;100742.44;1265763;23;678;-69
2022/12/20 04:25:37;;;;;;;;;;;;;;;12.96;68.68;100742.53;1265648;23;669;-69
2022/12/20 04:26:27;;;;;;;;;;;;;;;12.96;68.56;100742.53;1264820;23;662;-69
2022/12/20 04:27:17;;;;;;;;;;;;;;;12.95;68.62;100738.16;1265540;23;657;-69
2022/12/20 04:28:08;;;;;;;;;;;;;;;12.96;68.47;100745.22;1265722;23;618;-69
2022/12/20 04:28:58;;;;;;;;;;;;;;;12.96;68.81;100734.53;1265394;23;570;-69
2022/12/20 04:29:49;;;;;;;;;;;;;;;12.97;69.08;100732.69;1265756;23;638;-69